createdAt,value
2019-05-19T00:00:27.452Z,11.70
2019-05-19T00:03:02.229Z,11.75
2019-05-19T00:05:37.029Z,11.45
2019-05-19T00:08:11.794Z,11.50
2019-05-19T00:10:46.549Z,11.28
2019-05-19T00:13:21.219Z,11.83
2019-05-19T00:15:56.015Z,10.70
2019-05-19T00:18:30.709Z,11.20
2019-05-19T00:21:05.506Z,11.22
2019-05-19T00:23:40.198Z,11.70
2019-05-19T00:26:14.858Z,12.20
2019-05-19T00:28:49.622Z,13.08
2019-05-19T00:31:24.428Z,13.40
2019-05-19T00:33:59.048Z,13.68
2019-05-19T00:36:33.773Z,14.20
2019-05-19T00:39:08.538Z,13.25
2019-05-19T00:41:43.368Z,12.80
2019-05-19T00:44:18.142Z,12.70
2019-05-19T00:46:52.948Z,12.30
2019-05-19T00:49:40.618Z,11.78
2019-05-19T00:52:04.166Z,11.88
2019-05-19T00:54:38.930Z,11.93
2019-05-19T00:57:14.128Z,11.57
2019-05-19T00:59:49.594Z,11.43
2019-05-19T01:02:24.318Z,11.22
2019-05-19T01:04:59.054Z,12.33
2019-05-19T01:07:33.750Z,13.25
2019-05-19T01:10:09.228Z,12.63
2019-05-19T01:12:43.955Z,12.10
2019-05-19T01:15:18.925Z,12.07
2019-05-19T01:17:53.649Z,11.70
2019-05-19T01:20:28.403Z,11.48
2019-05-19T01:23:03.710Z,11.70
2019-05-19T01:25:38.471Z,12.30
2019-05-19T01:28:13.193Z,11.83
2019-05-19T01:30:47.895Z,11.75
2019-05-19T01:33:22.646Z,12.80
2019-05-19T01:35:57.413Z,13.10
2019-05-19T01:38:32.129Z,11.68
2019-05-19T01:41:06.826Z,11.48
2019-05-19T01:43:41.626Z,11.20
2019-05-19T01:46:16.327Z,11.73
2019-05-19T01:48:50.978Z,11.08
2019-05-19T01:51:25.747Z,12.05
2019-05-19T01:54:00.546Z,11.63
2019-05-19T01:56:35.314Z,11.22
2019-05-19T01:59:10.130Z,11.45
2019-05-19T02:01:44.834Z,11.40
2019-05-19T02:04:19.558Z,11.78
2019-05-19T02:06:54.259Z,12.33
2019-05-19T02:09:28.990Z,12.50
2019-05-19T02:12:03.762Z,12.98
2019-05-19T02:14:38.571Z,12.40
2019-05-19T02:17:13.406Z,13.03
2019-05-19T02:19:48.130Z,12.30
2019-05-19T02:22:22.911Z,12.73
2019-05-19T02:24:57.714Z,11.55
2019-05-19T02:27:32.410Z,11.20
2019-05-19T02:30:08.215Z,11.80
2019-05-19T02:32:42.983Z,11.83
2019-05-19T02:35:17.893Z,12.18
2019-05-19T02:37:52.576Z,11.90
2019-05-19T02:40:27.770Z,12.07
2019-05-19T02:43:03.446Z,11.50
2019-05-19T02:45:40.531Z,10.68
2019-05-19T02:48:15.804Z,11.05
2019-05-19T02:50:53.094Z,10.70
2019-05-19T02:53:29.346Z,10.50
2019-05-19T02:56:09.514Z,11.88
2019-05-19T02:58:44.565Z,11.40
2019-05-19T03:01:19.322Z,11.20
2019-05-19T03:03:54.015Z,11.30
2019-05-19T03:06:28.815Z,14.50
2019-05-19T03:09:04.880Z,26.27
2019-05-19T03:11:39.611Z,17.12
2019-05-19T03:14:14.388Z,22.73
2019-05-19T03:16:49.169Z,18.30
2019-05-19T03:19:23.861Z,27.75
2019-05-19T03:21:58.527Z,32.00
2019-05-19T03:24:33.218Z,17.67
2019-05-19T03:27:08.016Z,15.30
2019-05-19T03:29:44.279Z,11.55
2019-05-19T03:32:26.896Z,13.58
2019-05-19T03:35:01.590Z,13.32
2019-05-19T03:37:36.322Z,16.73
2019-05-19T03:40:12.695Z,13.53
2019-05-19T03:42:48.269Z,11.12
2019-05-19T03:45:23.155Z,11.28
2019-05-19T03:47:57.939Z,10.60
2019-05-19T03:50:32.703Z,11.10
2019-05-19T03:53:07.603Z,11.05
2019-05-19T03:55:42.300Z,11.10
2019-05-19T03:58:17.033Z,11.38
2019-05-19T04:00:51.795Z,10.85
2019-05-19T04:03:26.530Z,11.83
2019-05-19T04:06:01.230Z,11.18
2019-05-19T04:08:35.900Z,10.10
2019-05-19T04:11:10.520Z,10.70
2019-05-19T04:13:45.256Z,10.03
2019-05-19T04:16:20.012Z,8.93
2019-05-19T04:18:55.005Z,8.65
2019-05-19T04:21:45.765Z,9.28
2019-05-19T04:24:06.169Z,10.08
2019-05-19T04:26:40.869Z,10.40
2019-05-19T04:29:15.542Z,12.07
2019-05-19T04:31:50.172Z,12.58
2019-05-19T04:34:24.853Z,15.03
2019-05-19T04:36:59.621Z,12.50
2019-05-19T04:39:34.573Z,13.53
2019-05-19T04:42:09.351Z,13.72
2019-05-19T04:44:44.075Z,13.65
2019-05-19T04:47:18.798Z,12.45
2019-05-19T04:49:53.681Z,11.78
2019-05-19T04:52:28.332Z,12.73
2019-05-19T04:55:03.154Z,13.32
2019-05-19T04:57:37.912Z,13.00
2019-05-19T05:00:12.711Z,12.55
2019-05-19T05:02:47.414Z,12.07
2019-05-19T05:05:22.199Z,12.00
2019-05-19T05:07:56.783Z,12.05
2019-05-19T05:10:31.558Z,11.80
2019-05-19T05:13:06.266Z,12.05
2019-05-19T05:15:40.993Z,12.35
2019-05-19T05:18:15.690Z,11.53
2019-05-19T05:20:50.489Z,11.25
2019-05-19T05:23:26.245Z,10.93
2019-05-19T05:26:00.966Z,11.50
2019-05-19T05:28:35.624Z,10.95
2019-05-19T05:31:10.318Z,11.05
2019-05-19T05:33:45.081Z,10.58
2019-05-19T05:36:19.886Z,10.63
2019-05-19T05:38:54.645Z,9.10
2019-05-19T05:41:29.459Z,10.30
2019-05-19T05:44:04.221Z,10.50
2019-05-19T05:46:39.019Z,10.00
2019-05-19T05:49:13.716Z,10.23
2019-05-19T05:51:48.385Z,11.25
2019-05-19T05:54:23.175Z,10.98
2019-05-19T05:56:57.973Z,11.95
2019-05-19T05:59:32.667Z,11.65
2019-05-19T06:02:07.405Z,11.28
2019-05-19T06:04:42.094Z,10.85
2019-05-19T06:07:16.766Z,10.65
2019-05-19T06:09:51.388Z,11.20
2019-05-19T06:12:26.189Z,11.22
2019-05-19T06:15:00.886Z,11.68
2019-05-19T06:17:35.699Z,10.90
2019-05-19T06:20:10.658Z,10.70
2019-05-19T06:22:55.716Z,11.18
2019-05-19T06:25:22.691Z,10.05
2019-05-19T06:27:57.403Z,9.68
2019-05-19T06:30:32.098Z,9.63
2019-05-19T06:33:06.877Z,10.03
2019-05-19T06:35:41.592Z,10.13
2019-05-19T06:38:16.394Z,9.55
2019-05-19T06:40:51.078Z,9.95
2019-05-19T06:43:26.031Z,9.80
2019-05-19T06:46:00.786Z,9.30
2019-05-19T06:48:35.593Z,10.28
2019-05-19T06:51:10.380Z,9.68
2019-05-19T06:53:45.106Z,11.15
2019-05-19T06:56:19.875Z,11.48
2019-05-19T06:58:54.619Z,11.65
2019-05-19T07:01:29.325Z,12.40
2019-05-19T07:04:05.242Z,13.05
2019-05-19T07:06:39.996Z,12.75
2019-05-19T07:09:14.775Z,13.30
2019-05-19T07:11:49.481Z,13.62
2019-05-19T07:14:24.211Z,14.83
2019-05-19T07:16:59.049Z,14.53
2019-05-19T07:19:33.780Z,15.90
2019-05-19T07:22:08.476Z,17.05
2019-05-19T07:24:43.136Z,17.80
2019-05-19T07:27:17.861Z,16.87
2019-05-19T07:29:52.702Z,17.98
2019-05-19T07:32:27.503Z,18.50
2019-05-19T07:35:02.328Z,19.95
2019-05-19T07:37:37.021Z,21.90
2019-05-19T07:40:11.868Z,22.25
2019-05-19T07:42:46.549Z,21.70
2019-05-19T07:45:21.357Z,19.95
2019-05-19T07:47:56.050Z,18.95
2019-05-19T07:50:30.850Z,18.32
2019-05-19T07:53:05.642Z,17.65
2019-05-19T07:55:40.372Z,19.17
2019-05-19T07:58:15.145Z,18.98
2019-05-19T08:00:49.969Z,18.27
2019-05-19T08:03:36.743Z,19.37
2019-05-19T08:06:12.297Z,19.05
2019-05-19T08:08:46.906Z,18.98
2019-05-19T08:11:21.647Z,18.80
2019-05-19T08:13:56.374Z,18.92
2019-05-19T08:16:31.062Z,19.35
2019-05-19T08:19:05.826Z,20.25
2019-05-19T08:21:40.556Z,19.80
2019-05-19T08:24:15.321Z,20.30
2019-05-19T08:26:50.057Z,18.52
2019-05-19T08:29:24.755Z,18.37
2019-05-19T08:31:59.548Z,18.75
2019-05-19T08:34:34.302Z,18.40
2019-05-19T08:37:09.109Z,19.25
2019-05-19T08:39:43.762Z,16.52
2019-05-19T08:42:18.529Z,16.90
2019-05-19T08:44:53.301Z,17.57
2019-05-19T08:47:28.041Z,16.27
2019-05-19T08:50:02.898Z,14.80
2019-05-19T08:52:37.709Z,16.30
2019-05-19T08:55:12.595Z,16.17
2019-05-19T08:57:47.325Z,16.95
2019-05-19T09:00:22.074Z,15.40
2019-05-19T09:02:56.896Z,16.27
2019-05-19T09:05:31.669Z,14.87
2019-05-19T09:08:06.471Z,15.40
2019-05-19T09:10:41.242Z,15.65
2019-05-19T09:13:15.916Z,16.07
2019-05-19T09:15:50.697Z,15.03
2019-05-19T09:18:25.349Z,14.40
2019-05-19T09:21:00.117Z,14.20
2019-05-19T09:23:34.916Z,12.60
2019-05-19T09:26:09.683Z,14.93
2019-05-19T09:28:44.491Z,14.25
2019-05-19T09:31:19.261Z,14.50
2019-05-19T09:33:53.926Z,14.58
2019-05-19T09:36:28.706Z,15.28
2019-05-19T09:39:05.480Z,14.65
2019-05-19T09:41:40.250Z,14.55
2019-05-19T09:44:14.983Z,14.20
2019-05-19T09:46:49.610Z,15.93
2019-05-19T09:49:36.339Z,15.53
2019-05-19T09:52:11.170Z,16.27
2019-05-19T09:54:46.183Z,16.27
2019-05-19T09:57:21.036Z,16.00
2019-05-19T09:59:55.839Z,16.95
2019-05-19T10:02:30.610Z,16.12
2019-05-19T10:05:06.512Z,14.15
2019-05-19T10:07:41.274Z,13.80
2019-05-19T10:10:20.293Z,13.78
2019-05-19T10:12:54.995Z,13.45
2019-05-19T10:15:29.743Z,12.07
2019-05-19T10:18:04.516Z,13.62
2019-05-19T10:20:39.183Z,11.57
2019-05-19T10:23:13.802Z,11.40
2019-05-19T10:25:48.612Z,11.43
2019-05-19T10:28:23.238Z,11.40
2019-05-19T10:30:58.056Z,12.20
2019-05-19T10:33:32.720Z,12.10
2019-05-19T10:36:07.480Z,8.85
2019-05-19T10:38:42.166Z,7.60
2019-05-19T10:41:16.894Z,7.58
2019-05-19T10:43:53.289Z,8.20
2019-05-19T10:46:28.908Z,8.15
2019-05-19T10:49:03.659Z,9.48
2019-05-19T10:51:38.388Z,9.00
2019-05-19T10:54:13.149Z,8.00
2019-05-19T10:56:47.942Z,8.35
2019-05-19T10:59:22.705Z,7.45
2019-05-19T11:01:57.498Z,7.08
2019-05-19T11:04:32.890Z,6.83
2019-05-19T11:07:07.583Z,6.92
2019-05-19T11:09:42.346Z,6.95
2019-05-19T11:12:17.116Z,7.10
2019-05-19T11:14:51.871Z,7.47
2019-05-19T11:17:26.527Z,7.10
2019-05-19T11:20:01.293Z,6.37
2019-05-19T11:22:36.022Z,6.50
2019-05-19T11:25:10.974Z,6.12
2019-05-19T11:27:45.767Z,5.90
2019-05-19T11:30:20.555Z,5.85
2019-05-19T11:32:55.319Z,5.25
2019-05-19T11:35:30.002Z,5.17
2019-05-19T11:38:04.797Z,5.28
2019-05-19T11:40:39.558Z,5.17
2019-05-19T11:43:14.275Z,5.10
2019-05-19T11:45:48.978Z,5.40
2019-05-19T11:48:23.699Z,5.65
2019-05-19T11:50:58.395Z,5.30
2019-05-19T11:53:33.087Z,5.00
2019-05-19T11:56:11.235Z,4.20
2019-05-19T11:58:44.083Z,4.67
2019-05-19T12:01:18.842Z,4.70
2019-05-19T12:03:55.435Z,4.17
2019-05-19T12:06:38.755Z,4.60
2019-05-19T12:09:07.192Z,4.10
2019-05-19T12:11:41.883Z,4.72
2019-05-19T12:14:16.671Z,3.37
2019-05-19T12:16:51.518Z,2.98
2019-05-19T12:19:26.204Z,2.87
2019-05-19T12:22:00.962Z,3.58
2019-05-19T12:24:35.677Z,3.60
2019-05-19T12:27:10.444Z,4.85
2019-05-19T12:29:45.085Z,5.87
2019-05-19T12:32:19.802Z,4.42
2019-05-19T12:34:54.576Z,4.50
2019-05-19T12:37:29.403Z,4.17
2019-05-19T12:40:06.046Z,4.47
2019-05-19T12:42:40.854Z,4.10
2019-05-19T12:45:15.653Z,3.98
2019-05-19T12:47:50.406Z,4.20
2019-05-19T12:50:25.304Z,3.90
2019-05-19T12:53:00.060Z,4.87
2019-05-19T12:55:34.853Z,4.15
2019-05-19T12:58:09.608Z,4.20
2019-05-19T13:00:44.403Z,3.95
2019-05-19T13:03:19.171Z,4.30
2019-05-19T13:05:53.890Z,4.60
2019-05-19T13:08:28.570Z,4.50
2019-05-19T13:11:03.298Z,4.42
2019-05-19T13:13:38.891Z,4.50
2019-05-19T13:16:13.592Z,4.53
2019-05-19T13:18:48.338Z,4.42
2019-05-19T13:21:23.144Z,4.20
2019-05-19T13:23:58.008Z,4.12
2019-05-19T13:26:32.816Z,4.30
2019-05-19T13:29:07.574Z,4.40
2019-05-19T13:31:42.366Z,4.25
2019-05-19T13:34:17.128Z,4.37
2019-05-19T13:36:51.967Z,4.15
2019-05-19T13:39:26.649Z,4.40
2019-05-19T13:42:01.445Z,3.95
2019-05-19T13:44:36.198Z,4.45
2019-05-19T13:47:11.360Z,4.42
2019-05-19T13:49:46.151Z,4.45
2019-05-19T13:52:20.902Z,4.33
2019-05-19T13:54:55.591Z,4.53
2019-05-19T13:57:30.275Z,3.83
2019-05-19T14:00:06.034Z,4.30
2019-05-19T14:02:40.825Z,4.15
2019-05-19T14:05:15.976Z,4.35
2019-05-19T14:07:50.774Z,4.67
2019-05-19T14:10:25.455Z,4.25
2019-05-19T14:13:00.238Z,4.40
2019-05-19T14:15:34.911Z,4.33
2019-05-19T14:18:09.648Z,3.70
2019-05-19T14:20:44.337Z,3.75
2019-05-19T14:23:19.062Z,3.65
2019-05-19T14:25:53.743Z,3.85
2019-05-19T14:28:28.454Z,3.70
2019-05-19T14:31:03.218Z,3.60
2019-05-19T14:33:37.949Z,3.40
2019-05-19T14:36:12.706Z,3.77
2019-05-19T14:39:05.447Z,3.92
2019-05-19T14:41:40.475Z,4.47
2019-05-19T14:44:15.262Z,4.35
2019-05-19T14:46:49.893Z,3.90
2019-05-19T14:49:24.683Z,3.55
2019-05-19T14:51:59.447Z,3.75
2019-05-19T14:54:34.239Z,3.85
2019-05-19T14:57:08.996Z,4.00
2019-05-19T14:59:43.661Z,3.80
2019-05-19T15:02:19.967Z,3.50
2019-05-19T15:04:54.838Z,3.70
2019-05-19T15:07:29.608Z,3.42
2019-05-19T15:10:08.684Z,3.70
2019-05-19T15:12:43.455Z,3.70
2019-05-19T15:15:18.272Z,3.83
2019-05-19T15:17:52.937Z,3.65
2019-05-19T15:20:27.671Z,3.60
2019-05-19T15:23:02.295Z,3.95
2019-05-19T15:25:37.015Z,3.50
2019-05-19T15:28:11.774Z,3.50
2019-05-19T15:30:46.698Z,3.83
2019-05-19T15:33:21.398Z,3.05
2019-05-19T15:35:56.181Z,3.10
2019-05-19T15:38:30.890Z,3.10
2019-05-19T15:41:06.436Z,3.37
2019-05-19T15:43:41.049Z,2.62
2019-05-19T15:46:18.097Z,3.10
2019-05-19T15:48:52.018Z,3.10
2019-05-19T15:51:29.181Z,2.92
2019-05-19T15:54:03.164Z,2.90
2019-05-19T15:56:37.979Z,3.02
2019-05-19T15:59:12.598Z,3.00
2019-05-19T16:01:47.320Z,2.95
2019-05-19T16:04:21.936Z,2.87
2019-05-19T16:06:56.664Z,3.33
2019-05-19T16:09:31.406Z,2.90
2019-05-19T16:12:06.205Z,3.12
2019-05-19T16:14:40.886Z,2.60
2019-05-19T16:17:16.524Z,3.20
2019-05-19T16:19:51.207Z,2.72
2019-05-19T16:22:25.933Z,3.00
2019-05-19T16:25:03.053Z,2.85
2019-05-19T16:27:37.743Z,2.40
2019-05-19T16:30:12.672Z,2.70
2019-05-19T16:32:47.395Z,2.62
2019-05-19T16:35:22.063Z,2.80
2019-05-19T16:37:56.748Z,2.67
2019-05-19T16:40:31.432Z,2.70
2019-05-19T16:43:06.223Z,2.30
2019-05-19T16:45:40.991Z,2.60
2019-05-19T16:48:15.839Z,2.70
2019-05-19T16:50:50.779Z,2.75
2019-05-19T16:53:25.663Z,2.50
2019-05-19T16:56:00.347Z,2.60
2019-05-19T16:58:45.001Z,2.25
2019-05-19T17:01:11.524Z,2.80
2019-05-19T17:03:46.317Z,3.30
2019-05-19T17:06:21.001Z,2.80
2019-05-19T17:08:55.712Z,3.15
2019-05-19T17:11:30.395Z,3.20
2019-05-19T17:14:05.278Z,3.02
2019-05-19T17:16:39.980Z,3.12
2019-05-19T17:19:14.783Z,2.77
2019-05-19T17:21:49.526Z,2.72
2019-05-19T17:24:24.319Z,3.10
2019-05-19T17:26:58.975Z,2.92
2019-05-19T17:29:33.582Z,2.83
2019-05-19T17:32:08.204Z,2.75
2019-05-19T17:34:43.426Z,3.08
2019-05-19T17:37:18.043Z,3.20
2019-05-19T17:39:52.842Z,3.12
2019-05-19T17:42:27.522Z,3.55
2019-05-19T17:45:02.164Z,3.80
2019-05-19T17:47:36.888Z,3.92
2019-05-19T17:50:12.950Z,4.47
2019-05-19T17:52:47.703Z,4.35
2019-05-19T17:55:22.436Z,4.05
2019-05-19T17:57:58.917Z,5.10
2019-05-19T18:00:38.880Z,5.30
2019-05-19T18:03:13.650Z,3.58
2019-05-19T18:05:48.440Z,4.35
2019-05-19T18:08:23.142Z,4.00
2019-05-19T18:10:58.350Z,4.37
2019-05-19T18:13:33.052Z,3.90
2019-05-19T18:16:08.155Z,3.70
2019-05-19T18:18:42.842Z,4.25
2019-05-19T18:21:17.629Z,4.00
2019-05-19T18:23:52.390Z,3.77
2019-05-19T18:26:27.070Z,5.67
2019-05-19T18:29:01.785Z,5.83
2019-05-19T18:31:36.588Z,6.03
2019-05-19T18:34:11.340Z,7.55
2019-05-19T18:36:46.127Z,6.10
2019-05-19T18:39:20.798Z,6.20
2019-05-19T18:41:55.475Z,5.25
2019-05-19T18:44:30.161Z,5.78
2019-05-19T18:47:04.912Z,5.47
2019-05-19T18:49:39.638Z,4.60
2019-05-19T18:52:14.294Z,4.40
2019-05-19T18:54:50.413Z,5.20
2019-05-19T18:57:25.363Z,4.78
2019-05-19T19:00:00.100Z,6.60
2019-05-19T19:02:34.893Z,12.95
2019-05-19T19:05:09.658Z,10.30
2019-05-19T19:07:48.810Z,9.00
2019-05-19T19:10:23.562Z,5.80
2019-05-19T19:12:58.346Z,6.62
2019-05-19T19:15:33.048Z,5.65
2019-05-19T19:18:07.840Z,5.78
2019-05-19T19:20:42.613Z,5.80
2019-05-19T19:23:17.407Z,5.95
2019-05-19T19:25:52.164Z,7.03
2019-05-19T19:28:27.028Z,7.55
2019-05-19T19:31:01.728Z,6.95
2019-05-19T19:33:36.520Z,6.30
2019-05-19T19:36:11.275Z,5.75
2019-05-19T19:38:46.075Z,5.47
2019-05-19T19:41:20.767Z,5.08
2019-05-19T19:43:55.545Z,6.22
2019-05-19T19:46:30.304Z,5.37
2019-05-19T19:49:05.105Z,5.85
2019-05-19T19:51:39.857Z,5.80
2019-05-19T19:54:14.655Z,5.90
2019-05-19T19:56:49.330Z,4.53
2019-05-19T19:59:24.275Z,4.12
2019-05-19T20:01:59.043Z,6.55
2019-05-19T20:04:33.909Z,7.30
2019-05-19T20:07:18.073Z,6.22
2019-05-19T20:09:52.904Z,6.60
2019-05-19T20:12:27.657Z,6.50
2019-05-19T20:15:02.463Z,6.87
2019-05-19T20:17:37.176Z,7.92
2019-05-19T20:20:11.989Z,8.48
2019-05-19T20:22:46.683Z,8.15
2019-05-19T20:25:21.412Z,8.25
2019-05-19T20:27:56.095Z,8.03
2019-05-19T20:30:35.582Z,8.00
2019-05-19T20:33:07.259Z,8.00
2019-05-19T20:35:41.982Z,8.33
2019-05-19T20:38:16.674Z,8.10
2019-05-19T20:40:51.485Z,8.20
2019-05-19T20:43:26.258Z,7.65
2019-05-19T20:46:00.989Z,8.50
2019-05-19T20:48:35.669Z,8.35
2019-05-19T20:51:10.390Z,7.90
2019-05-19T20:53:45.150Z,8.15
2019-05-19T20:56:20.959Z,8.38
2019-05-19T20:58:55.634Z,9.08
2019-05-19T21:01:30.283Z,8.78
2019-05-19T21:04:05.046Z,8.43
2019-05-19T21:06:39.915Z,7.30
2019-05-19T21:09:14.600Z,5.45
2019-05-19T21:11:50.001Z,4.28
2019-05-19T21:14:24.688Z,4.03
2019-05-19T21:16:59.478Z,3.15
2019-05-19T21:19:34.237Z,2.72
2019-05-19T21:22:08.908Z,3.80
2019-05-19T21:24:43.559Z,3.37
2019-05-19T21:27:18.345Z,3.60
2019-05-19T21:29:53.487Z,4.10
2019-05-19T21:32:28.122Z,3.92
2019-05-19T21:35:02.864Z,4.42
2019-05-19T21:37:37.659Z,4.58
2019-05-19T21:40:12.516Z,4.85
2019-05-19T21:42:47.318Z,5.20
2019-05-19T21:45:22.067Z,5.22
2019-05-19T21:47:56.787Z,6.50
2019-05-19T21:50:31.539Z,3.50
2019-05-19T21:53:06.654Z,3.00
2019-05-19T21:55:41.460Z,2.50
2019-05-19T21:58:16.188Z,2.15
2019-05-19T22:00:52.184Z,2.75
2019-05-19T22:03:26.991Z,2.37
2019-05-19T22:06:01.742Z,2.77
2019-05-19T22:08:36.458Z,2.70
2019-05-19T22:11:11.216Z,2.45
2019-05-19T22:13:45.936Z,2.47
2019-05-19T22:16:20.614Z,5.78
2019-05-19T22:18:55.337Z,5.53
2019-05-19T22:21:30.012Z,4.15
2019-05-19T22:24:04.818Z,3.60
2019-05-19T22:26:39.428Z,4.20
2019-05-19T22:29:14.147Z,4.10
2019-05-19T22:31:48.826Z,4.20
2019-05-19T22:34:23.618Z,4.83
2019-05-19T22:36:58.299Z,4.83
2019-05-19T22:39:33.015Z,5.70
2019-05-19T22:42:07.778Z,5.70
2019-05-19T22:44:42.503Z,5.45
2019-05-19T22:47:17.124Z,4.42
2019-05-19T22:49:51.846Z,5.12
2019-05-19T22:52:26.528Z,4.45
2019-05-19T22:55:01.202Z,3.55
2019-05-19T22:57:35.800Z,4.08
2019-05-19T23:00:12.378Z,4.78
2019-05-19T23:02:47.141Z,5.92
2019-05-19T23:05:21.933Z,6.20
2019-05-19T23:07:56.554Z,5.87
2019-05-19T23:10:31.354Z,6.75
2019-05-19T23:13:08.274Z,4.53
2019-05-19T23:15:42.456Z,3.12
2019-05-19T23:18:17.222Z,3.75
2019-05-19T23:20:51.937Z,4.90
2019-05-19T23:23:26.619Z,4.30
2019-05-19T23:26:01.467Z,4.40
2019-05-19T23:28:36.041Z,5.28
2019-05-19T23:31:10.766Z,5.42
2019-05-19T23:33:45.494Z,4.58
2019-05-19T23:36:20.202Z,5.30
2019-05-19T23:38:54.911Z,4.97
2019-05-19T23:41:29.618Z,5.53
2019-05-19T23:44:04.380Z,6.45
2019-05-19T23:46:39.111Z,6.72
2019-05-19T23:49:13.802Z,6.65
2019-05-19T23:52:07.867Z,6.70
2019-05-19T23:54:54.824Z,6.10
2019-05-19T23:57:29.546Z,6.28
